Time;durP1;ratioP1;P1;durP2;ratioP2;P2;SDS_P1;SDS_P2;PMS_P1;PMS_P2;Temp;Humidity;BMP_temperature;BMP_pressure;BME280_temperature;BME280_humidity;BME280_pressure;Samples;Min_cycle;Max_cycle;Signal;HPM_P1;HPM_P2
2022/10/10 00:01:30;;;;;;;9.23;6.63;;;8.60;83.30;;;;;;5053541;28;20076;-75
2022/10/10 00:03:56;;;;;;;11.07;5.93;;;8.70;83.60;;;;;;5053450;28;20128;-76
2022/10/10 00:06:23;;;;;;;7.18;5.78;;;8.70;83.40;;;;;;5053438;28;20555;-78
2022/10/10 00:08:49;;;;;;;8.75;5.80;;;8.70;83.50;;;;;;5053696;28;20047;-76
2022/10/10 00:11:17;;;;;;;8.57;6.18;;;8.70;83.40;;;;;;5036787;28;20120;-76
2022/10/10 00:13:43;;;;;;;9.77;5.80;;;8.70;83.40;;;;;;5053434;28;20058;-77
2022/10/10 00:16:09;;;;;;;9.13;6.60;;;8.70;83.90;;;;;;5053287;28;20045;-76
2022/10/10 00:18:36;;;;;;;11.38;6.72;;;8.70;83.60;;;;;;5053266;28;20048;-76
2022/10/10 00:21:02;;;;;;;9.77;6.53;;;8.70;83.40;;;;;;5053157;28;20485;-77
2022/10/10 00:23:27;;;;;;;7.57;6.43;;;8.70;83.50;;;;;;5036418;28;20041;-76
2022/10/10 00:25:53;;;;;;;12.13;7.10;;;8.70;83.70;;;;;;5052988;28;20037;-77
2022/10/10 00:28:19;;;;;;;10.52;6.72;;;8.70;83.40;;;;;;5052955;28;20041;-77
2022/10/10 00:30:44;;;;;;;11.30;6.90;;;8.70;84.30;;;;;;5053216;28;20037;-76
2022/10/10 00:33:10;;;;;;;8.18;6.65;;;8.70;84.60;;;;;;5052961;28;20037;-76
2022/10/10 00:35:36;;;;;;;8.07;6.47;;;8.70;84.70;;;;;;5036297;28;20396;-76
2022/10/10 00:38:03;;;;;;;9.55;6.63;;;8.70;84.30;;;;;;5036314;28;20120;-76
2022/10/10 00:40:29;;;;;;;9.35;5.80;;;8.60;84.50;;;;;;5036210;28;20048;-77
2022/10/10 00:42:55;;;;;;;9.18;6.18;;;8.60;84.40;;;;;;5052697;28;20045;-77
2022/10/10 00:45:23;;;;;;;12.15;6.57;;;8.70;84.30;;;;;;5035833;28;20049;-76
2022/10/10 00:47:52;;;;;;;7.88;5.97;;;8.60;84.30;;;;;;5052687;28;20060;-76
2022/10/10 00:50:21;;;;;;;13.30;7.10;;;8.60;84.10;;;;;;5052667;28;20041;-75
2022/10/10 00:52:46;;;;;;;8.35;6.40;;;8.60;83.90;;;;;;5036045;28;20048;-76
2022/10/10 00:55:13;;;;;;;7.75;6.75;;;8.70;83.80;;;;;;5052304;28;20033;-77
2022/10/10 00:57:39;;;;;;;8.32;5.97;;;8.70;84.00;;;;;;5036258;28;20048;-76
2022/10/10 01:00:06;;;;;;;9.77;6.13;;;8.60;83.90;;;;;;5052447;28;20041;-77
2022/10/10 01:02:31;;;;;;;10.18;6.20;;;8.70;83.90;;;;;;5052338;28;20485;-76
2022/10/10 01:04:57;;;;;;;9.80;6.78;;;8.70;83.90;;;;;;5035966;28;20064;-76
2022/10/10 01:07:26;;;;;;;10.85;6.55;;;8.70;83.90;;;;;;5034863;28;20040;-77
2022/10/10 01:09:56;;;;;;;8.75;6.57;;;8.60;84.10;;;;;;5052229;28;20103;-77
2022/10/10 01:13:22;;;;;;;7.38;6.63;;;8.60;84.00;;;;;;5035617;28;20133;-77
2022/10/10 01:15:53;;;;;;;;;;;8.60;84.20;;;;;;4995478;28;20033;-77
2022/10/10 01:18:49;;;;;;;8.85;6.75;;;8.60;84.30;;;;;;4995383;28;20271;-77
2022/10/10 01:21:36;;;;;;;11.38;6.43;;;8.60;84.30;;;;;;5034452;28;20140;-76
2022/10/10 01:24:14;;;;;;;8.82;6.18;;;8.60;84.10;;;;;;5035398;28;20045;-76
2022/10/10 01:26:58;;;;;;;8.48;6.45;;;8.60;84.30;;;;;;5051846;28;20125;-77
2022/10/10 01:29:36;;;;;;;12.40;7.38;;;8.60;84.00;;;;;;5051955;28;20072;-76
2022/10/10 01:32:26;;;;;;;10.32;6.70;;;8.70;84.00;;;;;;5051924;28;20075;-78
2022/10/10 01:35:02;;;;;;;8.70;6.50;;;8.70;84.20;;;;;;5051845;28;20095;-77
2022/10/10 01:37:50;;;;;;;7.95;6.97;;;8.70;84.00;;;;;;5035230;28;20048;-76
2022/10/10 01:40:32;;;;;;;8.88;6.53;;;8.60;84.70;;;;;;5051815;28;20041;-77
2022/10/10 01:43:01;;;;;;;8.90;6.72;;;8.60;84.70;;;;;;5051704;28;20040;-78
2022/10/10 01:45:32;;;;;;;8.90;6.93;;;8.60;84.50;;;;;;5051404;28;20057;-76
2022/10/10 01:48:02;;;;;;;9.68;7.18;;;8.60;84.80;;;;;;5035296;28;20090;-76
2022/10/10 01:50:30;;;;;;;9.02;7.03;;;8.60;84.30;;;;;;5051734;28;20041;-77
2022/10/10 01:53:22;;;;;;;10.80;6.68;;;8.60;84.60;;;;;;5051632;28;20409;-78
2022/10/10 01:56:09;;;;;;;10.85;6.95;;;8.70;84.30;;;;;;5051481;28;20473;-78
2022/10/10 01:59:00;;;;;;;9.73;7.43;;;8.70;84.40;;;;;;5051612;28;20080;-77
2022/10/10 02:01:35;;;;;;;9.52;6.82;;;8.70;84.40;;;;;;5051633;28;20048;-78
2022/10/10 02:04:11;;;;;;;12.20;7.07;;;8.70;84.50;;;;;;5051490;28;20040;-77
2022/10/10 02:07:13;;;;;;;9.55;6.80;;;8.70;84.50;;;;;;5051574;28;20041;-77
2022/10/10 02:09:41;;;;;;;11.40;7.90;;;8.70;84.80;;;;;;5038720;28;20053;-78
2022/10/10 02:12:09;;;;;;;10.98;7.20;;;8.70;84.60;;;;;;5051486;28;20037;-78
2022/10/10 02:14:45;;;;;;;10.77;6.90;;;8.60;85.40;;;;;;5051296;28;20103;-78
2022/10/10 02:17:13;;;;;;;9.75;6.78;;;8.60;84.70;;;;;;5034846;28;20080;-77
2022/10/10 02:19:47;;;;;;;11.63;7.65;;;8.60;85.10;;;;;;5054291;28;20045;-76
2022/10/10 02:22:13;;;;;;;11.90;7.80;;;8.70;85.00;;;;;;5055473;28;20124;-77
2022/10/10 02:24:39;;;;;;;11.23;6.65;;;8.60;85.20;;;;;;5038857;28;20045;-78
2022/10/10 02:27:20;;;;;;;8.93;6.97;;;8.70;85.20;;;;;;5038678;28;20040;-77
2022/10/10 02:29:47;;;;;;;11.48;6.97;;;8.70;85.00;;;;;;5039024;28;20088;-77
2022/10/10 02:32:39;;;;;;;10.02;7.22;;;8.70;84.70;;;;;;5055461;28;20037;-78
2022/10/10 02:35:14;;;;;;;10.02;7.20;;;8.70;85.20;;;;;;5055216;28;20041;-76
2022/10/10 02:37:41;;;;;;;8.88;7.30;;;8.60;85.10;;;;;;5038423;28;20601;-77
2022/10/10 02:40:09;;;;;;;11.73;7.18;;;8.70;84.90;;;;;;5055063;28;20106;-77
2022/10/10 02:42:36;;;;;;;9.57;7.00;;;8.70;85.10;;;;;;5055048;28;20041;-76
2022/10/10 02:45:04;;;;;;;9.77;6.75;;;8.70;85.10;;;;;;5054755;28;20084;-78
2022/10/10 02:47:29;;;;;;;8.27;5.93;;;8.60;84.90;;;;;;5054915;28;20099;-76
2022/10/10 02:49:55;;;;;;;12.32;7.50;;;8.60;84.80;;;;;;5055034;28;20029;-76
2022/10/10 02:52:21;;;;;;;10.38;8.07;;;8.60;85.20;;;;;;5055096;28;20431;-77
2022/10/10 02:54:47;;;;;;;10.23;7.85;;;8.60;85.40;;;;;;5055033;28;20099;-77
2022/10/10 02:57:13;;;;;;;10.23;7.72;;;8.60;85.50;;;;;;5021921;28;20512;-75
2022/10/10 02:59:39;;;;;;;11.73;7.68;;;8.60;85.60;;;;;;5054651;28;20413;-76
2022/10/10 03:02:05;;;;;;;10.88;7.22;;;8.50;85.20;;;;;;5038090;28;20049;-77
2022/10/10 03:04:31;;;;;;;13.30;8.05;;;8.50;85.20;;;;;;5038202;28;20143;-77
2022/10/10 03:06:57;;;;;;;8.18;7.00;;;8.50;85.10;;;;;;5037914;28;20128;-77
2022/10/10 03:09:22;;;;;;;12.73;7.47;;;8.50;85.40;;;;;;5038432;28;20127;-77
2022/10/10 03:11:48;;;;;;;9.20;6.45;;;8.50;85.30;;;;;;5037886;28;20393;-76
2022/10/10 03:14:14;;;;;;;10.50;7.68;;;8.50;85.10;;;;;;5037804;28;20056;-77
2022/10/10 03:16:39;;;;;;;8.95;7.38;;;8.50;85.30;;;;;;5038107;28;20049;-76
2022/10/10 03:19:07;;;;;;;9.45;7.43;;;8.50;85.30;;;;;;5054337;28;20064;-77
2022/10/10 03:21:34;;;;;;;11.48;6.68;;;8.50;85.50;;;;;;5038237;28;20485;-78
2022/10/10 03:23:59;;;;;;;10.18;7.88;;;8.50;85.30;;;;;;5021200;28;20045;-78
2022/10/10 03:26:25;;;;;;;12.25;8.85;;;8.50;85.50;;;;;;5037531;28;20067;-76
2022/10/10 03:28:51;;;;;;;11.63;7.20;;;8.50;85.50;;;;;;5054191;28;20107;-76
2022/10/10 03:31:16;;;;;;;10.77;8.02;;;8.50;85.80;;;;;;5053256;28;20041;-76
2022/10/10 03:33:42;;;;;;;10.70;7.97;;;8.40;86.00;;;;;;5037302;28;20124;-76
2022/10/10 03:36:08;;;;;;;16.33;9.48;;;8.40;85.80;;;;;;5037499;28;20084;-77
2022/10/10 03:38:34;;;;;;;9.90;7.22;;;8.40;85.70;;;;;;5053928;28;20037;-76
2022/10/10 03:41:00;;;;;;;9.90;7.38;;;8.30;86.00;;;;;;5054276;28;20091;-76
2022/10/10 03:43:25;;;;;;;8.88;7.03;;;8.40;86.20;;;;;;5053798;28;20462;-77
2022/10/10 03:45:51;;;;;;;9.27;7.13;;;8.30;86.00;;;;;;5053564;28;20061;-78
2022/10/10 03:48:17;;;;;;;9.05;7.75;;;8.40;85.90;;;;;;5054024;28;20124;-77
2022/10/10 03:50:43;;;;;;;10.25;8.18;;;8.40;85.60;;;;;;5037489;28;20473;-77
2022/10/10 03:53:09;;;;;;;9.05;7.63;;;8.30;85.80;;;;;;5037167;28;20041;-77
2022/10/10 03:55:37;;;;;;;10.90;7.47;;;8.30;86.00;;;;;;5053802;28;20037;-77
2022/10/10 03:58:03;;;;;;;10.65;7.78;;;8.30;85.90;;;;;;5037005;28;20098;-77
2022/10/10 04:00:28;;;;;;;10.93;7.70;;;8.30;86.30;;;;;;5020503;28;20044;-76
2022/10/10 04:02:54;;;;;;;11.05;7.30;;;8.30;86.10;;;;;;5036942;28;20044;-77
2022/10/10 04:05:20;;;;;;;11.57;8.48;;;8.30;85.90;;;;;;5037028;28;20045;-77
2022/10/10 04:07:46;;;;;;;8.82;7.07;;;8.30;86.70;;;;;;5053366;28;20569;-78
2022/10/10 04:10:11;;;;;;;13.23;8.68;;;8.30;86.60;;;;;;5036812;28;20041;-76
2022/10/10 04:12:37;;;;;;;10.85;7.28;;;8.30;86.80;;;;;;5036714;28;20033;-77
2022/10/10 04:15:03;;;;;;;13.45;8.02;;;8.20;87.10;;;;;;5053495;28;20076;-77
2022/10/10 04:17:29;;;;;;;12.07;7.55;;;8.20;86.70;;;;;;5053168;28;20044;-77
2022/10/10 04:19:54;;;;;;;9.75;7.20;;;8.20;86.90;;;;;;5053509;28;20041;-77
2022/10/10 04:22:20;;;;;;;10.57;8.07;;;8.20;86.70;;;;;;5053473;28;20041;-77
2022/10/10 04:24:46;;;;;;;11.25;7.63;;;8.20;86.80;;;;;;5053095;28;20120;-77
2022/10/10 04:27:12;;;;;;;9.93;7.75;;;8.20;86.70;;;;;;5053165;28;20087;-78
2022/10/10 04:29:37;;;;;;;14.55;8.80;;;8.20;86.80;;;;;;5053022;28;20076;-75
2022/10/10 04:32:03;;;;;;;10.98;8.10;;;8.20;87.00;;;;;;5052987;28;20075;-77
2022/10/10 04:34:29;;;;;;;11.82;7.88;;;8.20;86.70;;;;;;5052828;28;20047;-77
2022/10/10 04:36:55;;;;;;;9.38;7.70;;;8.20;86.60;;;;;;5052871;28;20152;-78
2022/10/10 04:39:21;;;;;;;12.20;9.35;;;8.20;86.90;;;;;;5053213;28;20037;-77
2022/10/10 04:41:48;;;;;;;11.43;9.50;;;8.10;87.00;;;;;;5052806;28;20084;-77
2022/10/10 04:44:15;;;;;;;10.10;8.63;;;8.10;86.90;;;;;;5020308;28;20048;-77
2022/10/10 04:46:41;;;;;;;12.82;8.32;;;8.10;87.40;;;;;;5052438;28;20048;-78
2022/10/10 04:49:07;;;;;;;11.25;8.20;;;8.10;87.50;;;;;;5052730;28;20048;-76
2022/10/10 04:51:32;;;;;;;10.90;8.02;;;8.10;87.50;;;;;;5052934;28;20044;-77
2022/10/10 04:53:58;;;;;;;13.23;8.23;;;8.00;87.40;;;;;;5052528;28;20481;-77
2022/10/10 04:56:25;;;;;;;11.55;7.18;;;8.00;87.80;;;;;;5035971;28;20086;-76
2022/10/10 04:58:52;;;;;;;15.13;9.60;;;8.00;87.40;;;;;;5036017;28;20052;-77
2022/10/10 05:01:18;;;;;;;11.75;7.75;;;8.00;87.50;;;;;;5052921;28;20037;-78
2022/10/10 05:03:44;;;;;;;11.38;8.15;;;8.00;88.00;;;;;;5035961;28;20558;-78
2022/10/10 05:06:10;;;;;;;10.10;7.88;;;8.00;87.70;;;;;;5052322;28;20036;-77
2022/10/10 05:08:38;;;;;;;11.68;8.13;;;8.00;88.20;;;;;;5052225;28;20118;-79
2022/10/10 05:11:04;;;;;;;12.07;8.57;;;8.10;88.00;;;;;;5052566;28;20374;-77
2022/10/10 05:13:30;;;;;;;10.55;8.40;;;8.10;88.00;;;;;;5035575;28;20044;-78
2022/10/10 05:15:56;;;;;;;10.48;7.32;;;8.10;87.60;;;;;;5052201;28;20187;-77
2022/10/10 05:18:22;;;;;;;12.90;8.82;;;8.10;87.90;;;;;;5019159;28;20068;-77
2022/10/10 05:20:48;;;;;;;12.35;8.80;;;8.10;87.40;;;;;;5052083;28;20036;-77
2022/10/10 05:23:15;;;;;;;9.23;7.72;;;8.10;87.60;;;;;;5052399;28;20060;-78
2022/10/10 05:25:48;;;;;;;12.77;9.20;;;8.10;87.50;;;;;;5051769;28;20044;-77
2022/10/10 05:28:14;;;;;;;10.57;7.90;;;8.10;87.20;;;;;;5051929;28;20040;-77
2022/10/10 05:30:40;;;;;;;9.68;7.70;;;8.10;87.60;;;;;;5035241;28;20049;-77
2022/10/10 05:33:06;;;;;;;12.40;9.05;;;8.10;87.90;;;;;;5035401;28;20123;-79
2022/10/10 05:35:31;;;;;;;12.77;8.23;;;8.10;88.10;;;;;;5035185;28;20041;-79
2022/10/10 05:37:57;;;;;;;13.20;8.23;;;8.10;87.90;;;;;;5051800;28;20072;-80
2022/10/10 05:40:23;;;;;;;9.50;7.40;;;8.10;87.50;;;;;;5018691;28;20041;-81
2022/10/10 05:42:49;;;;;;;14.90;8.45;;;8.10;87.50;;;;;;5051481;28;20122;-78
2022/10/10 05:45:15;;;;;;;10.98;8.20;;;8.10;88.00;;;;;;5034612;28;20135;-78
2022/10/10 05:47:40;;;;;;;12.00;8.30;;;8.10;88.10;;;;;;5035463;28;20049;-76
2022/10/10 05:50:10;;;;;;;13.75;8.15;;;8.10;87.90;;;;;;5035634;28;20036;-76
2022/10/10 05:52:35;;;;;;;11.48;8.15;;;8.10;88.20;;;;;;5053699;28;20037;-75
2022/10/10 05:55:02;;;;;;;13.68;8.82;;;8.10;88.20;;;;;;5051576;28;20073;-77
2022/10/10 05:57:27;;;;;;;10.15;7.72;;;8.10;88.20;;;;;;5035088;28;20386;-79
2022/10/10 05:59:53;;;;;;;10.32;7.05;;;8.10;87.90;;;;;;5034929;28;20104;-78
2022/10/10 06:02:19;;;;;;;10.02;7.18;;;8.10;88.20;;;;;;5051819;28;20041;-78
2022/10/10 06:04:45;;;;;;;16.95;9.00;;;8.10;88.10;;;;;;5034907;28;20402;-78
2022/10/10 06:07:10;;;;;;;10.65;8.00;;;8.10;88.10;;;;;;5034878;28;20059;-77
2022/10/10 06:09:36;;;;;;;10.88;7.75;;;8.10;88.10;;;;;;5051485;28;20075;-78
2022/10/10 06:12:02;;;;;;;11.85;8.30;;;8.10;88.00;;;;;;5051727;28;20033;-79
2022/10/10 06:14:27;;;;;;;11.30;8.65;;;8.00;88.50;;;;;;5051378;28;20183;-76
2022/10/10 06:16:53;;;;;;;12.32;9.10;;;8.00;88.80;;;;;;5034871;28;20076;-78
2022/10/10 06:19:19;;;;;;;16.40;9.38;;;8.00;88.90;;;;;;5051397;28;20048;-78
2022/10/10 06:21:45;;;;;;;13.38;8.50;;;8.00;88.40;;;;;;5035158;28;20453;-78
2022/10/10 06:24:10;;;;;;;13.05;9.55;;;8.00;89.10;;;;;;5051516;28;20041;-76
2022/10/10 06:26:36;;;;;;;11.77;8.65;;;8.00;89.00;;;;;;5052134;28;20048;-77
2022/10/10 06:29:02;;;;;;;12.13;9.15;;;8.00;88.30;;;;;;5071469;28;20481;-77
2022/10/10 06:31:28;;;;;;;10.32;8.30;;;8.10;88.20;;;;;;5053899;28;20041;-77
2022/10/10 06:33:53;;;;;;;17.13;9.70;;;8.10;88.90;;;;;;5071031;28;20102;-77
2022/10/10 06:36:19;;;;;;;17.83;12.60;;;8.10;89.50;;;;;;5054834;28;20044;-77
2022/10/10 06:38:45;;;;;;;13.05;9.60;;;8.10;89.70;;;;;;5038256;28;20432;-76
2022/10/10 06:41:11;;;;;;;12.18;8.48;;;8.10;89.40;;;;;;5047734;28;20040;-78
2022/10/10 06:43:37;;;;;;;14.60;9.23;;;8.10;89.80;;;;;;5055027;28;20048;-76
2022/10/10 06:46:03;;;;;;;10.80;8.15;;;8.20;89.70;;;;;;5051456;28;20067;-77
2022/10/10 06:48:31;;;;;;;12.18;8.40;;;8.20;89.20;;;;;;5039658;28;20045;-76
2022/10/10 06:51:06;;;;;;;12.70;8.27;;;8.30;89.50;;;;;;5036660;28;20106;-77
2022/10/10 06:53:32;;;;;;;11.05;7.85;;;8.30;89.00;;;;;;5053938;28;20119;-76
2022/10/10 06:55:58;;;;;;;14.68;8.55;;;8.40;88.80;;;;;;5034239;28;20041;-76
2022/10/10 06:58:25;;;;;;;12.50;8.45;;;8.40;89.40;;;;;;5051902;28;20060;-78
2022/10/10 07:00:53;;;;;;;11.98;8.90;;;8.50;89.30;;;;;;5051552;28;20068;-78
2022/10/10 07:03:20;;;;;;;13.75;9.75;;;8.50;89.10;;;;;;5054586;28;20139;-76
2022/10/10 07:05:54;;;;;;;13.00;9.18;;;8.60;88.90;;;;;;5052219;28;20507;-78
2022/10/10 07:08:20;;;;;;;13.15;9.45;;;8.70;89.50;;;;;;5056454;28;20392;-75
2022/10/10 07:10:46;;;;;;;11.75;8.70;;;8.80;89.50;;;;;;5053618;28;20041;-77
2022/10/10 07:13:13;;;;;;;11.60;8.93;;;8.80;89.30;;;;;;5042263;28;20123;-77
2022/10/10 07:15:38;;;;;;;12.10;8.32;;;8.90;89.30;;;;;;5056350;28;20048;-77
2022/10/10 07:18:05;;;;;;;12.65;8.73;;;9.00;89.40;;;;;;5057220;28;20617;-78
2022/10/10 07:20:31;;;;;;;13.13;9.52;;;9.10;89.80;;;;;;5041563;28;20051;-77
2022/10/10 07:22:56;;;;;;;17.80;10.02;;;9.10;89.70;;;;;;5056777;28;20052;-76
2022/10/10 07:25:22;;;;;;;17.30;9.40;;;9.30;89.80;;;;;;5038131;28;20100;-77
2022/10/10 07:27:48;;;;;;;13.05;8.55;;;9.40;89.60;;;;;;5035096;28;20128;-77
2022/10/10 07:30:14;;;;;;;14.38;9.73;;;9.50;89.30;;;;;;5054005;28;20048;-77
2022/10/10 07:32:40;;;;;;;14.50;9.32;;;9.60;89.60;;;;;;5048455;28;20045;-75
2022/10/10 07:35:06;;;;;;;11.88;8.82;;;9.70;89.40;;;;;;5059439;28;20076;-73
2022/10/10 07:37:32;;;;;;;12.13;10.07;;;9.80;89.50;;;;;;5053363;28;20045;-74
2022/10/10 07:39:57;;;;;;;11.70;8.45;;;10.00;89.50;;;;;;5055894;28;20055;-74
2022/10/10 07:42:23;;;;;;;15.68;8.60;;;10.20;89.60;;;;;;5053725;28;20516;-74
2022/10/10 07:44:49;;;;;;;10.75;8.02;;;10.30;89.10;;;;;;5059850;28;20089;-74
2022/10/10 07:47:15;;;;;;;10.48;8.23;;;10.50;88.90;;;;;;5057618;28;20606;-74
2022/10/10 07:49:40;;;;;;;14.00;8.55;;;10.60;88.90;;;;;;5056877;28;20036;-74
2022/10/10 07:52:06;;;;;;;15.43;8.88;;;10.70;89.30;;;;;;5056806;28;20456;-75
2022/10/10 07:54:32;;;;;;;15.80;9.70;;;10.80;89.20;;;;;;5019524;28;20329;-74
2022/10/10 07:56:58;;;;;;;16.45;8.55;;;10.80;89.10;;;;;;5039658;28;20127;-75
2022/10/10 07:59:24;;;;;;;12.10;9.18;;;10.90;88.90;;;;;;5036889;28;20493;-74
2022/10/10 08:01:50;;;;;;;10.50;8.68;;;10.90;88.90;;;;;;5038157;28;20416;-75
2022/10/10 08:04:16;;;;;;;14.05;8.68;;;11.00;88.80;;;;;;5041116;28;20040;-75
2022/10/10 08:06:42;;;;;;;13.90;9.38;;;11.00;88.80;;;;;;5056048;28;20044;-74
2022/10/10 08:09:08;;;;;;;16.88;10.15;;;11.00;88.90;;;;;;5041634;28;20036;-74
2022/10/10 08:11:33;;;;;;;13.43;9.40;;;11.10;88.90;;;;;;5054459;28;20134;-75
2022/10/10 08:13:59;;;;;;;18.33;10.40;;;11.10;88.80;;;;;;5040007;28;20051;-75
2022/10/10 08:16:25;;;;;;;17.92;9.93;;;11.10;89.10;;;;;;5037207;28;20055;-75
2022/10/10 08:18:51;;;;;;;14.35;8.85;;;11.20;88.60;;;;;;5057145;28;20037;-75
2022/10/10 08:21:17;;;;;;;15.15;9.25;;;11.20;88.60;;;;;;5055675;28;20573;-75
2022/10/10 08:23:43;;;;;;;14.02;9.40;;;11.30;88.70;;;;;;5029787;28;20052;-74
2022/10/10 08:26:11;;;;;;;15.35;10.23;;;11.30;89.10;;;;;;5041303;28;20056;-75
2022/10/10 08:28:38;;;;;;;12.18;9.48;;;11.40;88.70;;;;;;5055275;28;20053;-75
2022/10/10 08:31:13;;;;;;;13.98;9.07;;;11.40;89.00;;;;;;5053604;28;20114;-75
2022/10/10 08:33:41;;;;;;;13.20;10.68;;;11.50;89.20;;;;;;5056439;28;20650;-75
2022/10/10 08:36:10;;;;;;;12.55;9.23;;;11.50;89.20;;;;;;5041789;28;20535;-74
2022/10/10 08:38:35;;;;;;;14.85;10.40;;;11.50;89.00;;;;;;5058882;28;20040;-75
2022/10/10 08:41:08;;;;;;;15.82;9.75;;;11.60;89.20;;;;;;5036716;28;20552;-74
2022/10/10 08:43:47;;;;;;;13.13;10.10;;;11.60;89.90;;;;;;5057551;28;20286;-75
2022/10/10 08:46:38;;;;;;;12.80;9.52;;;11.70;89.40;;;;;;5052166;28;20053;-74
2022/10/10 08:49:24;;;;;;;13.57;10.68;;;11.80;89.10;;;;;;5050971;28;20139;-75
2022/10/10 08:52:22;;;;;;;15.25;10.73;;;11.90;90.00;;;;;;5051054;28;20394;-75
2022/10/10 08:54:48;;;;;;;15.63;10.93;;;12.00;89.40;;;;;;5038545;28;20040;-75
2022/10/10 08:57:28;;;;;;;12.85;9.95;;;12.10;89.70;;;;;;5053485;28;20085;-75
2022/10/10 08:59:58;;;;;;;13.85;9.52;;;12.20;89.20;;;;;;5036674;28;20511;-75
2022/10/10 09:02:27;;;;;;;13.43;10.02;;;12.30;88.90;;;;;;5041862;28;20055;-75
2022/10/10 09:04:52;;;;;;;13.05;10.63;;;12.50;88.70;;;;;;5053147;28;20066;-75
2022/10/10 09:07:33;;;;;;;13.25;10.40;;;12.60;89.00;;;;;;5059093;28;20044;-75
2022/10/10 09:10:26;;;;;;;20.30;10.02;;;12.60;89.00;;;;;;5053882;28;20127;-75
2022/10/10 09:13:06;;;;;;;12.70;10.23;;;12.70;88.90;;;;;;5054840;28;20049;-74
2022/10/10 09:15:40;;;;;;;12.90;9.57;;;12.70;88.90;;;;;;5056412;28;20052;-74
2022/10/10 09:18:21;;;;;;;;;;;12.70;88.90;;;;;;5055230;28;20061;-75
2022/10/10 09:20:51;;;;;;;13.95;9.55;;;12.70;88.80;;;;;;5053472;28;20331;-75
2022/10/10 09:23:16;;;;;;;14.80;10.13;;;12.70;88.80;;;;;;5053348;28;20045;-75
2022/10/10 09:25:49;;;;;;;19.58;12.00;;;12.80;88.70;;;;;;5037329;28;20046;-75
2022/10/10 09:28:34;;;;;;;16.25;10.93;;;12.80;88.70;;;;;;5057314;28;20048;-75
2022/10/10 09:31:02;;;;;;;16.67;10.98;;;12.90;89.00;;;;;;5054090;28;20163;-74
2022/10/10 09:33:37;;;;;;;18.40;11.82;;;13.00;89.10;;;;;;5054973;28;20055;-75
2022/10/10 09:36:08;;;;;;;15.20;11.30;;;13.20;88.50;;;;;;5054271;28;20106;-75
2022/10/10 09:38:45;;;;;;;15.73;10.88;;;13.40;88.30;;;;;;5040730;28;20054;-75
2022/10/10 09:41:28;;;;;;;16.20;11.65;;;13.50;88.10;;;;;;5052752;28;20056;-75
2022/10/10 09:43:56;;;;;;;16.90;10.75;;;13.60;87.80;;;;;;5056119;28;20300;-75
2022/10/10 09:46:22;;;;;;;17.98;11.27;;;13.90;87.70;;;;;;5054247;28;20072;-75
2022/10/10 09:48:49;;;;;;;18.88;11.98;;;14.00;87.50;;;;;;5039820;28;20048;-76
2022/10/10 09:51:17;;;;;;;14.88;10.63;;;14.20;87.40;;;;;;5051937;28;20447;-75
2022/10/10 09:53:43;;;;;;;17.60;11.52;;;14.30;87.10;;;;;;5034930;28;20033;-75
2022/10/10 09:56:33;;;;;;;17.05;11.10;;;14.40;86.60;;;;;;5037558;28;20099;-75
2022/10/10 09:59:00;;;;;;;16.63;10.63;;;14.50;86.60;;;;;;5054412;28;20057;-75
2022/10/10 10:01:31;;;;;;;18.80;10.88;;;14.40;86.50;;;;;;5036988;28;20367;-75
2022/10/10 10:04:06;;;;;;;18.40;12.23;;;14.40;86.60;;;;;;5039012;28;20044;-76
2022/10/10 10:06:31;;;;;;;15.55;10.77;;;14.50;86.60;;;;;;5058117;28;20056;-75
2022/10/10 10:09:01;;;;;;;13.68;9.45;;;14.50;86.50;;;;;;5051071;28;20481;-75
2022/10/10 10:11:38;;;;;;;11.82;8.93;;;14.60;86.60;;;;;;5050660;28;20047;-75
2022/10/10 10:14:04;;;;;;;15.52;10.35;;;14.70;86.60;;;;;;5055180;28;20041;-75
2022/10/10 10:16:36;;;;;;;14.05;9.05;;;14.60;86.40;;;;;;5055912;28;20075;-75
2022/10/10 10:19:02;;;;;;;13.95;10.07;;;14.70;86.40;;;;;;5036759;28;20056;-75
2022/10/10 10:21:29;;;;;;;14.45;9.90;;;14.70;86.20;;;;;;5054119;28;20153;-75
2022/10/10 10:24:01;;;;;;;13.75;9.00;;;14.80;86.40;;;;;;5055075;28;20048;-75
2022/10/10 10:26:39;;;;;;;11.13;8.13;;;14.90;86.20;;;;;;5051387;28;20057;-75
2022/10/10 10:29:24;;;;;;;18.88;9.70;;;14.90;86.10;;;;;;5053388;28;20041;-76
2022/10/10 10:32:05;;;;;;;14.75;9.65;;;14.90;85.80;;;;;;5050577;28;20033;-75
2022/10/10 10:34:40;;;;;;;11.55;9.40;;;15.00;85.70;;;;;;5053867;28;20048;-75
2022/10/10 10:37:39;;;;;;;16.15;9.40;;;15.00;85.80;;;;;;5035483;28;20420;-75
2022/10/10 10:40:08;;;;;;;15.38;10.05;;;15.00;85.40;;;;;;5037181;28;20056;-75
2022/10/10 10:42:36;;;;;;;15.32;9.10;;;15.00;85.60;;;;;;5039686;28;20052;-75
2022/10/10 10:45:39;;;;;;;14.55;8.93;;;15.00;85.80;;;;;;5057750;28;20106;-75
2022/10/10 10:48:16;;;;;;;14.25;8.98;;;15.00;85.70;;;;;;5057283;28;20049;-75
2022/10/10 10:51:05;;;;;;;15.75;10.05;;;15.00;85.70;;;;;;5055546;28;20133;-75
2022/10/10 10:54:03;;;;;;;15.02;10.18;;;14.90;85.70;;;;;;5060008;28;20049;-75
2022/10/10 10:56:42;;;;;;;16.85;10.23;;;14.80;86.00;;;;;;5057069;28;20074;-75
2022/10/10 10:59:26;;;;;;;14.60;9.57;;;14.90;85.70;;;;;;5058179;28;20041;-75
2022/10/10 11:02:00;;;;;;;16.30;10.05;;;14.70;86.10;;;;;;5058180;28;20161;-75
2022/10/10 11:04:45;;;;;;;18.38;10.45;;;14.70;86.00;;;;;;5042769;28;20514;-75
2022/10/10 11:07:17;;;;;;;12.45;8.77;;;14.60;85.90;;;;;;5055970;28;20379;-75
2022/10/10 11:10:00;;;;;;;18.73;10.85;;;14.50;86.40;;;;;;5057843;28;20044;-75
2022/10/10 11:12:44;;;;;;;16.33;10.27;;;14.40;86.90;;;;;;5055736;28;20485;-75
2022/10/10 11:15:21;;;;;;;18.00;11.73;;;14.40;87.20;;;;;;5058868;28;20445;-75
2022/10/10 11:18:14;;;;;;;17.73;11.15;;;14.30;87.00;;;;;;5059315;28;20037;-75
2022/10/10 11:20:46;;;;;;;15.02;9.98;;;14.20;87.60;;;;;;5054964;28;20048;-75
2022/10/10 11:23:27;;;;;;;13.65;10.90;;;14.20;87.40;;;;;;5050101;28;20572;-75
2022/10/10 11:26:10;;;;;;;18.92;12.25;;;14.20;87.70;;;;;;5058068;28;20040;-75
2022/10/10 11:28:41;;;;;;;15.85;12.13;;;14.20;87.60;;;;;;5058813;28;20542;-75
2022/10/10 11:31:24;;;;;;;17.63;11.93;;;14.20;88.10;;;;;;5056065;28;20045;-74
2022/10/10 11:34:03;;;;;;;19.02;11.80;;;14.10;88.70;;;;;;5056580;28;20045;-75
2022/10/10 11:36:33;;;;;;;17.00;11.68;;;14.10;88.50;;;;;;5056670;28;20053;-74
2022/10/10 11:39:13;;;;;;;17.40;12.15;;;14.10;88.90;;;;;;5055005;28;20053;-74
2022/10/10 11:41:45;;;;;;;17.83;12.65;;;14.00;89.10;;;;;;5055097;28;20088;-74
2022/10/10 11:44:22;;;;;;;16.20;11.80;;;14.10;88.90;;;;;;5053017;28;20062;-74
2022/10/10 11:46:48;;;;;;;17.48;12.93;;;14.10;88.70;;;;;;5056313;28;20068;-74
2022/10/10 11:49:23;;;;;;;21.95;12.85;;;14.20;88.70;;;;;;5056653;28;20099;-74
2022/10/10 11:52:13;;;;;;;17.42;13.30;;;14.20;89.80;;;;;;5056795;28;20045;-74
2022/10/10 11:55:09;;;;;;;16.40;11.95;;;14.20;90.00;;;;;;5042964;28;20048;-74
2022/10/10 11:57:43;;;;;;;17.13;12.40;;;14.20;89.70;;;;;;5055435;28;20219;-74
2022/10/10 12:00:13;;;;;;;;;;;14.10;90.10;;;;;;5053156;28;20689;-74
2022/10/10 12:02:41;;;;;;;23.30;13.35;;;14.10;90.00;;;;;;5056100;28;20017;-74
2022/10/10 12:05:16;;;;;;;19.27;13.35;;;14.10;89.40;;;;;;5055581;28;20045;-74
2022/10/10 12:07:55;;;;;;;23.65;13.23;;;14.00;89.90;;;;;;5056820;28;20110;-74
2022/10/10 12:10:30;;;;;;;18.15;13.52;;;14.00;91.10;;;;;;5055159;28;20041;-74
2022/10/10 12:13:02;;;;;;;17.80;13.25;;;14.00;91.00;;;;;;5054915;28;20528;-74
2022/10/10 12:15:36;;;;;;;20.63;13.30;;;13.90;91.00;;;;;;5058149;28;20392;-74
2022/10/10 12:18:03;;;;;;;22.02;14.80;;;14.00;90.40;;;;;;5055359;28;20040;-74
2022/10/10 12:20:34;;;;;;;18.33;14.60;;;14.00;90.80;;;;;;5058235;28;20106;-76
2022/10/10 12:23:26;;;;;;;26.05;14.98;;;13.90;91.50;;;;;;5058790;28;20084;-74
2022/10/10 12:25:52;;;;;;;19.20;13.82;;;13.90;91.20;;;;;;5056139;28;20045;-75
2022/10/10 12:28:55;;;;;;;19.35;12.52;;;13.80;91.10;;;;;;5057313;28;20055;-75
2022/10/10 12:31:36;;;;;;;19.55;11.90;;;13.90;91.60;;;;;;5058904;28;20044;-75
2022/10/10 12:34:55;;;;;;;18.17;11.32;;;14.00;91.60;;;;;;5056833;28;20052;-76
2022/10/10 12:37:31;;;;;;;11.43;8.10;;;14.00;91.90;;;;;;4998393;28;20046;-75
2022/10/10 12:40:06;;;;;;;13.23;7.50;;;14.00;92.20;;;;;;5053734;28;20476;-74
2022/10/10 12:42:47;;;;;;;12.02;6.13;;;14.00;92.10;;;;;;5057093;28;20519;-75
2022/10/10 12:45:28;;;;;;;6.25;1.10;;;14.00;92.40;;;;;;5058883;28;20117;-75
2022/10/10 12:47:56;;;;;;;10.40;2.13;;;13.90;91.80;;;;;;5056216;28;20057;-75
2022/10/10 12:50:26;;;;;;;6.45;1.55;;;13.70;90.70;;;;;;5057603;28;20412;-75
2022/10/10 12:52:56;;;;;;;9.88;2.00;;;13.50;90.60;;;;;;5059770;28;20066;-75
2022/10/10 12:55:31;;;;;;;9.13;2.60;;;13.40;90.60;;;;;;5057490;28;20037;-75
2022/10/10 12:58:08;;;;;;;6.32;2.28;;;13.30;90.80;;;;;;5060406;28;20397;-75
2022/10/10 13:00:42;;;;;;;7.47;1.63;;;13.20;91.00;;;;;;5056877;28;20416;-74
2022/10/10 13:03:46;;;;;;;10.75;2.63;;;13.10;91.10;;;;;;5037781;28;20052;-74